Terminal Aerodrome Forecast
Issued by NWS

Home | Current Version | Previous Version | Text Only | Print | Product List | Glossary On
Versions: 1 2 3 4 5 6 7 8 9 10 11 12 13 14 15 16 17 18 19 20 21 22 23 24 25
000
FTUS41 KCTP 252138 AAA
TAFJST
TAF AMD
KJST 252138Z 2522/2618 13003KT P6SM SCT250
     FM260900 14003KT P6SM VCFG SCT250
     FM261300 11004KT P6SM FEW250=

USA.gov is the U.S. government's official web portal to all federal, state and local government web resources and services.